sensor_id;sensor_type;location;lat;lon;timestamp;P1;durP1;ratioP1;P2;durP2;ratioP2
5539;SDS011;2792;52.452;9.752;2022-12-24T00:02:14;7.17;;;4.93;;
5539;SDS011;2792;52.452;9.752;2022-12-24T00:04:40;6.67;;;5.20;;
5539;SDS011;2792;52.452;9.752;2022-12-24T00:07:07;7.10;;;4.90;;
5539;SDS011;2792;52.452;9.752;2022-12-24T00:09:33;8.90;;;6.00;;
5539;SDS011;2792;52.452;9.752;2022-12-24T00:12:00;5.80;;;3.97;;
5539;SDS011;2792;52.452;9.752;2022-12-24T00:14:26;7.47;;;4.60;;
5539;SDS011;2792;52.452;9.752;2022-12-24T00:16:54;6.70;;;4.90;;
5539;SDS011;2792;52.452;9.752;2022-12-24T00:19:21;5.40;;;4.40;;
5539;SDS011;2792;52.452;9.752;2022-12-24T00:21:47;5.47;;;4.07;;
5539;SDS011;2792;52.452;9.752;2022-12-24T00:24:14;5.67;;;4.40;;
5539;SDS011;2792;52.452;9.752;2022-12-24T00:26:40;6.97;;;4.83;;
5539;SDS011;2792;52.452;9.752;2022-12-24T00:29:07;6.23;;;4.77;;
5539;SDS011;2792;52.452;9.752;2022-12-24T00:31:34;6.77;;;4.73;;
5539;SDS011;2792;52.452;9.752;2022-12-24T00:34:01;5.70;;;4.50;;
5539;SDS011;2792;52.452;9.752;2022-12-24T00:36:28;9.50;;;5.30;;
5539;SDS011;2792;52.452;9.752;2022-12-24T00:38:54;6.17;;;4.97;;
5539;SDS011;2792;52.452;9.752;2022-12-24T00:41:21;7.60;;;5.03;;
5539;SDS011;2792;52.452;9.752;2022-12-24T00:43:53;8.13;;;4.60;;
5539;SDS011;2792;52.452;9.752;2022-12-24T00:46:20;6.30;;;5.43;;
5539;SDS011;2792;52.452;9.752;2022-12-24T00:48:47;8.30;;;5.23;;
5539;SDS011;2792;52.452;9.752;2022-12-24T00:51:15;6.80;;;5.00;;
5539;SDS011;2792;52.452;9.752;2022-12-24T00:53:42;7.00;;;4.90;;
5539;SDS011;2792;52.452;9.752;2022-12-24T00:56:09;7.60;;;5.53;;
5539;SDS011;2792;52.452;9.752;2022-12-24T00:58:35;8.60;;;5.17;;
5539;SDS011;2792;52.452;9.752;2022-12-24T01:01:02;7.77;;;5.00;;
5539;SDS011;2792;52.452;9.752;2022-12-24T01:03:29;8.13;;;5.50;;
5539;SDS011;2792;52.452;9.752;2022-12-24T01:06:02;7.57;;;5.43;;
5539;SDS011;2792;52.452;9.752;2022-12-24T01:08:30;8.77;;;5.50;;
5539;SDS011;2792;52.452;9.752;2022-12-24T01:10:56;6.10;;;4.63;;
5539;SDS011;2792;52.452;9.752;2022-12-24T01:13:23;9.60;;;5.47;;
5539;SDS011;2792;52.452;9.752;2022-12-24T01:15:50;8.07;;;4.93;;
5539;SDS011;2792;52.452;9.752;2022-12-24T01:18:17;7.33;;;5.00;;
5539;SDS011;2792;52.452;9.752;2022-12-24T01:20:43;6.03;;;5.00;;
5539;SDS011;2792;52.452;9.752;2022-12-24T01:23:10;9.40;;;5.80;;
5539;SDS011;2792;52.452;9.752;2022-12-24T01:25:38;8.20;;;5.73;;
5539;SDS011;2792;52.452;9.752;2022-12-24T01:28:05;7.70;;;5.67;;
5539;SDS011;2792;52.452;9.752;2022-12-24T01:30:31;10.00;;;5.07;;
5539;SDS011;2792;52.452;9.752;2022-12-24T01:32:58;11.93;;;6.30;;
5539;SDS011;2792;52.452;9.752;2022-12-24T01:35:24;8.23;;;5.57;;
5539;SDS011;2792;52.452;9.752;2022-12-24T01:37:51;8.47;;;5.50;;
5539;SDS011;2792;52.452;9.752;2022-12-24T01:40:17;10.43;;;5.77;;
5539;SDS011;2792;52.452;9.752;2022-12-24T01:43:04;9.00;;;5.73;;
5539;SDS011;2792;52.452;9.752;2022-12-24T01:45:48;11.40;;;6.70;;
5539;SDS011;2792;52.452;9.752;2022-12-24T01:48:21;9.03;;;5.57;;
5539;SDS011;2792;52.452;9.752;2022-12-24T01:50:55;13.40;;;5.93;;
5539;SDS011;2792;52.452;9.752;2022-12-24T01:53:23;8.80;;;5.60;;
5539;SDS011;2792;52.452;9.752;2022-12-24T01:55:50;12.53;;;7.17;;
5539;SDS011;2792;52.452;9.752;2022-12-24T01:58:18;10.40;;;6.97;;
5539;SDS011;2792;52.452;9.752;2022-12-24T02:00:45;8.20;;;5.60;;
5539;SDS011;2792;52.452;9.752;2022-12-24T02:03:12;9.60;;;5.73;;
5539;SDS011;2792;52.452;9.752;2022-12-24T02:05:41;10.70;;;6.40;;
5539;SDS011;2792;52.452;9.752;2022-12-24T02:08:10;7.10;;;5.17;;
5539;SDS011;2792;52.452;9.752;2022-12-24T02:10:37;10.10;;;5.60;;
5539;SDS011;2792;52.452;9.752;2022-12-24T02:13:04;10.67;;;5.80;;
5539;SDS011;2792;52.452;9.752;2022-12-24T02:15:33;10.37;;;5.83;;
5539;SDS011;2792;52.452;9.752;2022-12-24T02:18:09;9.20;;;5.73;;
5539;SDS011;2792;52.452;9.752;2022-12-24T02:20:55;10.10;;;5.73;;
5539;SDS011;2792;52.452;9.752;2022-12-24T02:23:41;9.20;;;5.77;;
5539;SDS011;2792;52.452;9.752;2022-12-24T02:26:21;7.83;;;5.47;;
5539;SDS011;2792;52.452;9.752;2022-12-24T02:29:03;9.80;;;6.00;;
5539;SDS011;2792;52.452;9.752;2022-12-24T02:31:47;11.50;;;6.53;;
5539;SDS011;2792;52.452;9.752;2022-12-24T02:34:15;10.73;;;6.83;;
5539;SDS011;2792;52.452;9.752;2022-12-24T02:36:47;8.67;;;6.27;;
5539;SDS011;2792;52.452;9.752;2022-12-24T02:39:17;10.27;;;6.00;;
5539;SDS011;2792;52.452;9.752;2022-12-24T02:41:47;10.77;;;6.67;;
5539;SDS011;2792;52.452;9.752;2022-12-24T02:44:35;10.17;;;6.07;;
5539;SDS011;2792;52.452;9.752;2022-12-24T02:47:06;10.90;;;6.40;;
5539;SDS011;2792;52.452;9.752;2022-12-24T02:49:33;10.67;;;6.90;;
5539;SDS011;2792;52.452;9.752;2022-12-24T02:52:00;10.33;;;6.47;;
5539;SDS011;2792;52.452;9.752;2022-12-24T02:54:26;10.10;;;6.20;;
5539;SDS011;2792;52.452;9.752;2022-12-24T02:57:03;15.07;;;6.87;;
5539;SDS011;2792;52.452;9.752;2022-12-24T02:59:44;9.57;;;6.07;;
5539;SDS011;2792;52.452;9.752;2022-12-24T03:02:21;11.67;;;6.53;;
5539;SDS011;2792;52.452;9.752;2022-12-24T03:04:54;12.03;;;6.83;;
5539;SDS011;2792;52.452;9.752;2022-12-24T03:07:24;9.97;;;6.23;;
5539;SDS011;2792;52.452;9.752;2022-12-24T03:09:57;8.90;;;5.97;;
5539;SDS011;2792;52.452;9.752;2022-12-24T03:12:29;9.77;;;6.00;;
5539;SDS011;2792;52.452;9.752;2022-12-24T03:14:58;11.07;;;6.50;;
5539;SDS011;2792;52.452;9.752;2022-12-24T03:17:26;12.53;;;7.17;;
5539;SDS011;2792;52.452;9.752;2022-12-24T03:19:54;10.60;;;5.93;;
5539;SDS011;2792;52.452;9.752;2022-12-24T03:22:21;9.27;;;5.97;;
5539;SDS011;2792;52.452;9.752;2022-12-24T03:24:47;7.50;;;5.43;;
5539;SDS011;2792;52.452;9.752;2022-12-24T03:27:14;9.23;;;5.47;;
5539;SDS011;2792;52.452;9.752;2022-12-24T03:29:41;8.33;;;5.63;;
5539;SDS011;2792;52.452;9.752;2022-12-24T03:32:07;8.10;;;5.07;;
5539;SDS011;2792;52.452;9.752;2022-12-24T03:34:35;10.90;;;6.47;;
5539;SDS011;2792;52.452;9.752;2022-12-24T03:37:02;15.13;;;7.30;;
5539;SDS011;2792;52.452;9.752;2022-12-24T03:39:29;13.20;;;7.10;;
5539;SDS011;2792;52.452;9.752;2022-12-24T03:41:55;17.03;;;7.53;;
5539;SDS011;2792;52.452;9.752;2022-12-24T03:44:21;18.43;;;8.10;;
5539;SDS011;2792;52.452;9.752;2022-12-24T03:46:48;16.07;;;8.20;;
5539;SDS011;2792;52.452;9.752;2022-12-24T03:49:14;15.10;;;7.60;;
5539;SDS011;2792;52.452;9.752;2022-12-24T03:51:42;18.13;;;8.00;;
5539;SDS011;2792;52.452;9.752;2022-12-24T03:54:09;20.07;;;9.37;;
5539;SDS011;2792;52.452;9.752;2022-12-24T03:56:35;20.53;;;8.40;;
5539;SDS011;2792;52.452;9.752;2022-12-24T03:59:02;24.43;;;7.90;;
5539;SDS011;2792;52.452;9.752;2022-12-24T04:01:28;17.97;;;7.43;;
5539;SDS011;2792;52.452;9.752;2022-12-24T04:03:55;24.80;;;7.00;;
5539;SDS011;2792;52.452;9.752;2022-12-24T04:06:21;12.77;;;5.10;;
5539;SDS011;2792;52.452;9.752;2022-12-24T04:08:49;29.30;;;5.80;;
5539;SDS011;2792;52.452;9.752;2022-12-24T04:11:16;20.90;;;5.63;;
5539;SDS011;2792;52.452;9.752;2022-12-24T04:13:42;21.67;;;6.13;;
5539;SDS011;2792;52.452;9.752;2022-12-24T04:16:10;25.40;;;5.63;;
5539;SDS011;2792;52.452;9.752;2022-12-24T04:18:37;18.03;;;5.53;;
5539;SDS011;2792;52.452;9.752;2022-12-24T04:21:05;21.57;;;6.40;;
5539;SDS011;2792;52.452;9.752;2022-12-24T04:23:32;27.27;;;6.50;;
5539;SDS011;2792;52.452;9.752;2022-12-24T04:26:01;33.47;;;6.20;;
5539;SDS011;2792;52.452;9.752;2022-12-24T04:28:28;19.83;;;5.80;;
5539;SDS011;2792;52.452;9.752;2022-12-24T04:30:56;17.57;;;5.70;;
5539;SDS011;2792;52.452;9.752;2022-12-24T04:33:23;22.33;;;5.87;;
5539;SDS011;2792;52.452;9.752;2022-12-24T04:35:50;22.30;;;6.63;;
5539;SDS011;2792;52.452;9.752;2022-12-24T04:38:16;20.20;;;5.37;;
5539;SDS011;2792;52.452;9.752;2022-12-24T04:40:43;24.60;;;5.40;;
5539;SDS011;2792;52.452;9.752;2022-12-24T04:43:11;25.33;;;6.30;;
5539;SDS011;2792;52.452;9.752;2022-12-24T04:45:37;22.80;;;6.00;;
5539;SDS011;2792;52.452;9.752;2022-12-24T04:48:04;25.60;;;6.37;;
5539;SDS011;2792;52.452;9.752;2022-12-24T04:50:30;23.17;;;5.33;;
5539;SDS011;2792;52.452;9.752;2022-12-24T04:52:57;22.50;;;5.03;;
5539;SDS011;2792;52.452;9.752;2022-12-24T04:55:24;20.80;;;5.07;;
5539;SDS011;2792;52.452;9.752;2022-12-24T04:57:50;35.57;;;5.73;;
5539;SDS011;2792;52.452;9.752;2022-12-24T05:00:18;19.00;;;5.30;;
5539;SDS011;2792;52.452;9.752;2022-12-24T05:02:45;25.17;;;5.33;;
5539;SDS011;2792;52.452;9.752;2022-12-24T05:05:12;30.07;;;5.10;;
5539;SDS011;2792;52.452;9.752;2022-12-24T05:07:38;25.20;;;5.37;;
5539;SDS011;2792;52.452;9.752;2022-12-24T05:10:05;20.27;;;5.27;;
5539;SDS011;2792;52.452;9.752;2022-12-24T05:12:32;23.40;;;4.83;;
5539;SDS011;2792;52.452;9.752;2022-12-24T05:14:59;21.53;;;5.27;;
5539;SDS011;2792;52.452;9.752;2022-12-24T05:17:27;19.23;;;5.93;;
5539;SDS011;2792;52.452;9.752;2022-12-24T05:19:53;27.87;;;6.10;;
5539;SDS011;2792;52.452;9.752;2022-12-24T05:22:20;22.07;;;4.50;;
5539;SDS011;2792;52.452;9.752;2022-12-24T05:25:04;19.93;;;4.50;;
5539;SDS011;2792;52.452;9.752;2022-12-24T05:27:48;22.90;;;4.87;;
5539;SDS011;2792;52.452;9.752;2022-12-24T05:30:15;18.90;;;4.60;;
5539;SDS011;2792;52.452;9.752;2022-12-24T05:32:43;25.70;;;4.97;;
5539;SDS011;2792;52.452;9.752;2022-12-24T05:35:10;16.90;;;3.93;;
5539;SDS011;2792;52.452;9.752;2022-12-24T05:37:36;25.03;;;4.10;;
5539;SDS011;2792;52.452;9.752;2022-12-24T05:40:03;15.20;;;4.07;;
5539;SDS011;2792;52.452;9.752;2022-12-24T05:42:30;13.83;;;4.30;;
5539;SDS011;2792;52.452;9.752;2022-12-24T05:44:57;14.73;;;4.37;;
5539;SDS011;2792;52.452;9.752;2022-12-24T05:47:23;26.73;;;4.63;;
5539;SDS011;2792;52.452;9.752;2022-12-24T05:49:51;13.83;;;3.70;;
5539;SDS011;2792;52.452;9.752;2022-12-24T05:52:18;14.17;;;3.73;;
5539;SDS011;2792;52.452;9.752;2022-12-24T05:54:44;14.50;;;3.27;;
5539;SDS011;2792;52.452;9.752;2022-12-24T05:57:11;15.40;;;4.00;;
5539;SDS011;2792;52.452;9.752;2022-12-24T05:59:37;15.73;;;4.30;;
5539;SDS011;2792;52.452;9.752;2022-12-24T06:02:04;18.43;;;4.87;;
5539;SDS011;2792;52.452;9.752;2022-12-24T06:04:30;18.13;;;4.70;;
5539;SDS011;2792;52.452;9.752;2022-12-24T06:06:58;29.27;;;5.50;;
5539;SDS011;2792;52.452;9.752;2022-12-24T06:09:24;22.17;;;4.83;;
5539;SDS011;2792;52.452;9.752;2022-12-24T06:11:51;19.97;;;4.30;;
5539;SDS011;2792;52.452;9.752;2022-12-24T06:14:17;25.67;;;5.20;;
5539;SDS011;2792;52.452;9.752;2022-12-24T06:16:44;16.23;;;4.30;;
5539;SDS011;2792;52.452;9.752;2022-12-24T06:19:10;23.20;;;5.10;;
5539;SDS011;2792;52.452;9.752;2022-12-24T06:21:37;19.90;;;5.73;;
5539;SDS011;2792;52.452;9.752;2022-12-24T06:24:05;25.47;;;5.60;;
5539;SDS011;2792;52.452;9.752;2022-12-24T06:26:31;26.47;;;6.47;;
5539;SDS011;2792;52.452;9.752;2022-12-24T06:28:58;24.40;;;5.30;;
5539;SDS011;2792;52.452;9.752;2022-12-24T06:31:25;22.87;;;5.90;;
5539;SDS011;2792;52.452;9.752;2022-12-24T06:33:51;25.93;;;5.30;;
5539;SDS011;2792;52.452;9.752;2022-12-24T06:36:19;24.07;;;4.37;;
5539;SDS011;2792;52.452;9.752;2022-12-24T06:38:47;29.10;;;6.20;;
5539;SDS011;2792;52.452;9.752;2022-12-24T06:41:15;23.37;;;5.70;;
5539;SDS011;2792;52.452;9.752;2022-12-24T06:43:43;27.53;;;6.27;;
5539;SDS011;2792;52.452;9.752;2022-12-24T06:46:10;19.27;;;6.10;;
5539;SDS011;2792;52.452;9.752;2022-12-24T06:48:37;25.60;;;6.10;;
5539;SDS011;2792;52.452;9.752;2022-12-24T06:51:03;22.80;;;5.90;;
5539;SDS011;2792;52.452;9.752;2022-12-24T06:53:31;21.83;;;5.23;;
5539;SDS011;2792;52.452;9.752;2022-12-24T06:56:00;27.90;;;5.60;;
5539;SDS011;2792;52.452;9.752;2022-12-24T06:58:29;29.40;;;6.07;;
5539;SDS011;2792;52.452;9.752;2022-12-24T07:00:56;16.40;;;5.20;;
5539;SDS011;2792;52.452;9.752;2022-12-24T07:03:22;27.67;;;6.00;;
5539;SDS011;2792;52.452;9.752;2022-12-24T07:05:49;23.47;;;5.47;;
5539;SDS011;2792;52.452;9.752;2022-12-24T07:08:15;19.87;;;4.70;;
5539;SDS011;2792;52.452;9.752;2022-12-24T07:10:41;22.43;;;5.30;;
5539;SDS011;2792;52.452;9.752;2022-12-24T07:13:08;21.53;;;4.80;;
5539;SDS011;2792;52.452;9.752;2022-12-24T07:15:36;23.57;;;5.47;;
5539;SDS011;2792;52.452;9.752;2022-12-24T07:18:02;21.37;;;5.03;;
5539;SDS011;2792;52.452;9.752;2022-12-24T07:20:29;19.83;;;4.50;;
5539;SDS011;2792;52.452;9.752;2022-12-24T07:22:55;8.43;;;3.20;;
5539;SDS011;2792;52.452;9.752;2022-12-24T07:25:22;16.47;;;4.07;;
5539;SDS011;2792;52.452;9.752;2022-12-24T07:27:48;24.30;;;4.77;;
5539;SDS011;2792;52.452;9.752;2022-12-24T07:30:15;17.83;;;5.70;;
5539;SDS011;2792;52.452;9.752;2022-12-24T07:32:43;20.37;;;5.00;;
5539;SDS011;2792;52.452;9.752;2022-12-24T07:35:10;15.10;;;3.40;;
5539;SDS011;2792;52.452;9.752;2022-12-24T07:37:45;24.23;;;5.00;;
5539;SDS011;2792;52.452;9.752;2022-12-24T07:40:11;13.90;;;3.43;;
5539;SDS011;2792;52.452;9.752;2022-12-24T07:42:38;16.60;;;3.30;;
5539;SDS011;2792;52.452;9.752;2022-12-24T07:45:05;23.37;;;4.50;;
5539;SDS011;2792;52.452;9.752;2022-12-24T07:47:33;27.53;;;4.27;;
5539;SDS011;2792;52.452;9.752;2022-12-24T07:50:01;24.07;;;4.63;;
5539;SDS011;2792;52.452;9.752;2022-12-24T07:52:28;18.80;;;4.53;;
5539;SDS011;2792;52.452;9.752;2022-12-24T07:54:54;19.77;;;3.77;;
5539;SDS011;2792;52.452;9.752;2022-12-24T07:57:21;13.60;;;4.20;;
5539;SDS011;2792;52.452;9.752;2022-12-24T07:59:47;15.90;;;3.70;;
5539;SDS011;2792;52.452;9.752;2022-12-24T08:02:14;20.93;;;4.37;;
5539;SDS011;2792;52.452;9.752;2022-12-24T08:04:40;18.60;;;4.33;;
5539;SDS011;2792;52.452;9.752;2022-12-24T08:07:08;14.00;;;4.50;;
5539;SDS011;2792;52.452;9.752;2022-12-24T08:09:35;17.30;;;3.60;;
5539;SDS011;2792;52.452;9.752;2022-12-24T08:12:02;20.33;;;3.70;;
5539;SDS011;2792;52.452;9.752;2022-12-24T08:14:29;26.60;;;5.27;;
5539;SDS011;2792;52.452;9.752;2022-12-24T08:16:56;19.43;;;4.33;;
5539;SDS011;2792;52.452;9.752;2022-12-24T08:19:23;16.60;;;4.53;;
5539;SDS011;2792;52.452;9.752;2022-12-24T08:21:50;15.27;;;4.23;;
5539;SDS011;2792;52.452;9.752;2022-12-24T08:24:17;17.80;;;4.27;;
5539;SDS011;2792;52.452;9.752;2022-12-24T08:26:44;25.07;;;5.37;;
5539;SDS011;2792;52.452;9.752;2022-12-24T08:29:10;24.57;;;4.30;;
5539;SDS011;2792;52.452;9.752;2022-12-24T08:31:37;23.67;;;4.60;;
5539;SDS011;2792;52.452;9.752;2022-12-24T08:34:05;20.80;;;4.40;;
5539;SDS011;2792;52.452;9.752;2022-12-24T08:36:33;24.77;;;5.13;;
5539;SDS011;2792;52.452;9.752;2022-12-24T08:38:59;19.40;;;5.03;;
5539;SDS011;2792;52.452;9.752;2022-12-24T08:41:29;20.17;;;4.73;;
5539;SDS011;2792;52.452;9.752;2022-12-24T08:43:55;15.63;;;3.70;;
5539;SDS011;2792;52.452;9.752;2022-12-24T08:46:22;15.83;;;3.87;;
5539;SDS011;2792;52.452;9.752;2022-12-24T08:48:48;27.53;;;6.37;;
5539;SDS011;2792;52.452;9.752;2022-12-24T08:51:15;13.60;;;4.00;;
5539;SDS011;2792;52.452;9.752;2022-12-24T08:53:43;20.60;;;4.10;;
5539;SDS011;2792;52.452;9.752;2022-12-24T08:56:10;21.13;;;4.30;;
5539;SDS011;2792;52.452;9.752;2022-12-24T08:58:38;21.53;;;4.70;;
5539;SDS011;2792;52.452;9.752;2022-12-24T09:01:09;23.10;;;5.30;;
5539;SDS011;2792;52.452;9.752;2022-12-24T09:03:36;25.60;;;4.70;;
5539;SDS011;2792;52.452;9.752;2022-12-24T09:06:03;21.40;;;4.27;;
5539;SDS011;2792;52.452;9.752;2022-12-24T09:08:30;24.70;;;5.70;;
5539;SDS011;2792;52.452;9.752;2022-12-24T09:11:00;24.23;;;4.93;;
5539;SDS011;2792;52.452;9.752;2022-12-24T09:13:28;23.50;;;5.37;;
5539;SDS011;2792;52.452;9.752;2022-12-24T09:15:56;25.13;;;5.50;;
5539;SDS011;2792;52.452;9.752;2022-12-24T09:18:22;15.70;;;4.60;;
5539;SDS011;2792;52.452;9.752;2022-12-24T09:20:50;25.87;;;5.70;;
5539;SDS011;2792;52.452;9.752;2022-12-24T09:23:16;26.60;;;5.80;;
5539;SDS011;2792;52.452;9.752;2022-12-24T09:25:43;25.23;;;5.97;;
5539;SDS011;2792;52.452;9.752;2022-12-24T09:28:09;28.00;;;6.00;;
5539;SDS011;2792;52.452;9.752;2022-12-24T09:30:36;23.07;;;6.43;;
5539;SDS011;2792;52.452;9.752;2022-12-24T09:33:04;37.60;;;7.40;;
5539;SDS011;2792;52.452;9.752;2022-12-24T09:35:30;25.50;;;8.00;;
5539;SDS011;2792;52.452;9.752;2022-12-24T09:37:57;32.87;;;8.87;;
5539;SDS011;2792;52.452;9.752;2022-12-24T09:40:28;36.77;;;8.47;;
5539;SDS011;2792;52.452;9.752;2022-12-24T09:42:59;29.03;;;8.27;;
5539;SDS011;2792;52.452;9.752;2022-12-24T09:45:27;41.20;;;8.90;;
5539;SDS011;2792;52.452;9.752;2022-12-24T09:47:56;21.80;;;7.80;;
5539;SDS011;2792;52.452;9.752;2022-12-24T09:50:33;36.67;;;8.80;;
5539;SDS011;2792;52.452;9.752;2022-12-24T09:53:06;25.73;;;7.60;;
5539;SDS011;2792;52.452;9.752;2022-12-24T09:55:39;37.67;;;9.00;;
5539;SDS011;2792;52.452;9.752;2022-12-24T09:58:09;23.53;;;8.40;;
5539;SDS011;2792;52.452;9.752;2022-12-24T10:00:42;24.90;;;8.33;;
5539;SDS011;2792;52.452;9.752;2022-12-24T10:03:12;27.80;;;7.77;;
5539;SDS011;2792;52.452;9.752;2022-12-24T10:05:42;25.70;;;7.47;;
5539;SDS011;2792;52.452;9.752;2022-12-24T10:08:13;37.50;;;7.93;;
5539;SDS011;2792;52.452;9.752;2022-12-24T10:10:47;30.33;;;8.77;;
5539;SDS011;2792;52.452;9.752;2022-12-24T10:13:19;23.87;;;8.07;;
5539;SDS011;2792;52.452;9.752;2022-12-24T10:15:53;28.00;;;7.40;;
5539;SDS011;2792;52.452;9.752;2022-12-24T10:18:25;28.90;;;8.00;;
5539;SDS011;2792;52.452;9.752;2022-12-24T10:20:56;26.43;;;9.10;;
5539;SDS011;2792;52.452;9.752;2022-12-24T10:23:27;31.03;;;6.97;;
5539;SDS011;2792;52.452;9.752;2022-12-24T10:26:00;27.70;;;7.67;;
5539;SDS011;2792;52.452;9.752;2022-12-24T10:28:33;29.50;;;8.33;;
5539;SDS011;2792;52.452;9.752;2022-12-24T10:31:04;16.60;;;6.43;;
5539;SDS011;2792;52.452;9.752;2022-12-24T10:33:33;29.83;;;7.00;;
5539;SDS011;2792;52.452;9.752;2022-12-24T10:36:04;29.00;;;7.20;;
5539;SDS011;2792;52.452;9.752;2022-12-24T10:38:34;19.00;;;6.80;;
5539;SDS011;2792;52.452;9.752;2022-12-24T10:41:00;25.17;;;6.50;;
5539;SDS011;2792;52.452;9.752;2022-12-24T10:43:28;25.53;;;7.87;;
5539;SDS011;2792;52.452;9.752;2022-12-24T10:45:56;25.37;;;6.80;;
5539;SDS011;2792;52.452;9.752;2022-12-24T10:48:25;26.20;;;7.30;;
5539;SDS011;2792;52.452;9.752;2022-12-24T10:50:58;17.50;;;6.80;;
5539;SDS011;2792;52.452;9.752;2022-12-24T10:53:30;26.43;;;7.90;;
5539;SDS011;2792;52.452;9.752;2022-12-24T10:56:00;33.73;;;7.87;;
5539;SDS011;2792;52.452;9.752;2022-12-24T10:58:27;29.67;;;7.30;;
5539;SDS011;2792;52.452;9.752;2022-12-24T11:00:54;19.93;;;6.10;;
5539;SDS011;2792;52.452;9.752;2022-12-24T11:03:22;24.90;;;9.00;;
5539;SDS011;2792;52.452;9.752;2022-12-24T11:06:00;27.20;;;7.27;;
5539;SDS011;2792;52.452;9.752;2022-12-24T11:08:30;20.33;;;6.67;;
5539;SDS011;2792;52.452;9.752;2022-12-24T11:10:58;19.10;;;6.40;;
5539;SDS011;2792;52.452;9.752;2022-12-24T11:13:27;27.90;;;6.50;;
5539;SDS011;2792;52.452;9.752;2022-12-24T11:16:01;30.00;;;7.37;;
5539;SDS011;2792;52.452;9.752;2022-12-24T11:18:30;19.73;;;6.23;;
5539;SDS011;2792;52.452;9.752;2022-12-24T11:20:57;23.03;;;6.63;;
5539;SDS011;2792;52.452;9.752;2022-12-24T11:26:02;19.40;;;6.80;;
5539;SDS011;2792;52.452;9.752;2022-12-24T11:28:29;21.23;;;7.00;;
5539;SDS011;2792;52.452;9.752;2022-12-24T11:30:59;25.40;;;6.13;;
5539;SDS011;2792;52.452;9.752;2022-12-24T11:33:27;20.33;;;6.40;;
5539;SDS011;2792;52.452;9.752;2022-12-24T11:35:56;19.23;;;5.33;;
5539;SDS011;2792;52.452;9.752;2022-12-24T11:38:27;20.70;;;5.43;;
5539;SDS011;2792;52.452;9.752;2022-12-24T11:40:58;15.73;;;5.37;;
5539;SDS011;2792;52.452;9.752;2022-12-24T11:43:32;18.20;;;5.60;;
5539;SDS011;2792;52.452;9.752;2022-12-24T11:46:16;12.97;;;5.80;;
5539;SDS011;2792;52.452;9.752;2022-12-24T11:48:47;19.70;;;6.13;;
5539;SDS011;2792;52.452;9.752;2022-12-24T11:51:19;23.33;;;5.60;;
5539;SDS011;2792;52.452;9.752;2022-12-24T11:53:50;16.50;;;5.77;;
5539;SDS011;2792;52.452;9.752;2022-12-24T11:56:27;24.90;;;7.17;;
5539;SDS011;2792;52.452;9.752;2022-12-24T11:58:58;27.50;;;6.80;;
5539;SDS011;2792;52.452;9.752;2022-12-24T12:01:29;23.80;;;6.60;;
5539;SDS011;2792;52.452;9.752;2022-12-24T12:03:59;20.90;;;7.43;;
5539;SDS011;2792;52.452;9.752;2022-12-24T12:06:27;22.07;;;6.17;;
5539;SDS011;2792;52.452;9.752;2022-12-24T12:08:58;20.20;;;6.37;;
5539;SDS011;2792;52.452;9.752;2022-12-24T12:11:26;19.87;;;6.37;;
5539;SDS011;2792;52.452;9.752;2022-12-24T12:13:55;17.40;;;6.20;;
5539;SDS011;2792;52.452;9.752;2022-12-24T12:16:26;28.47;;;7.40;;
5539;SDS011;2792;52.452;9.752;2022-12-24T12:18:56;22.07;;;5.93;;
5539;SDS011;2792;52.452;9.752;2022-12-24T12:21:26;23.27;;;6.13;;
5539;SDS011;2792;52.452;9.752;2022-12-24T12:23:56;14.10;;;5.07;;
5539;SDS011;2792;52.452;9.752;2022-12-24T12:26:26;17.00;;;6.03;;
5539;SDS011;2792;52.452;9.752;2022-12-24T12:28:54;17.80;;;5.57;;
5539;SDS011;2792;52.452;9.752;2022-12-24T12:31:25;21.97;;;5.47;;
5539;SDS011;2792;52.452;9.752;2022-12-24T12:33:54;20.23;;;6.17;;
5539;SDS011;2792;52.452;9.752;2022-12-24T12:36:24;21.17;;;6.10;;
5539;SDS011;2792;52.452;9.752;2022-12-24T12:38:53;17.20;;;5.17;;
5539;SDS011;2792;52.452;9.752;2022-12-24T12:41:25;14.93;;;5.10;;
5539;SDS011;2792;52.452;9.752;2022-12-24T12:46:56;18.77;;;5.80;;
5539;SDS011;2792;52.452;9.752;2022-12-24T12:49:31;17.80;;;4.90;;
5539;SDS011;2792;52.452;9.752;2022-12-24T12:52:03;16.40;;;5.70;;
5539;SDS011;2792;52.452;9.752;2022-12-24T12:54:41;14.17;;;5.47;;
5539;SDS011;2792;52.452;9.752;2022-12-24T12:57:15;16.80;;;4.90;;
5539;SDS011;2792;52.452;9.752;2022-12-24T12:59:43;16.93;;;5.90;;
5539;SDS011;2792;52.452;9.752;2022-12-24T13:02:24;17.17;;;5.40;;
5539;SDS011;2792;52.452;9.752;2022-12-24T13:13:43;14.93;;;5.00;;
5539;SDS011;2792;52.452;9.752;2022-12-24T13:19:24;17.30;;;5.40;;
5539;SDS011;2792;52.452;9.752;2022-12-24T13:21:57;11.67;;;6.30;;
5539;SDS011;2792;52.452;9.752;2022-12-24T13:24:24;15.80;;;4.73;;
5539;SDS011;2792;52.452;9.752;2022-12-24T13:26:58;12.17;;;4.17;;
5539;SDS011;2792;52.452;9.752;2022-12-24T13:29:30;13.53;;;5.00;;
5539;SDS011;2792;52.452;9.752;2022-12-24T13:35:25;11.47;;;4.07;;
5539;SDS011;2792;52.452;9.752;2022-12-24T13:44:13;7.27;;;3.00;;
5539;SDS011;2792;52.452;9.752;2022-12-24T13:46:48;6.37;;;2.63;;
5539;SDS011;2792;52.452;9.752;2022-12-24T13:49:17;5.20;;;2.30;;
5539;SDS011;2792;52.452;9.752;2022-12-24T13:51:46;13.63;;;3.03;;
5539;SDS011;2792;52.452;9.752;2022-12-24T13:54:13;5.63;;;2.30;;
5539;SDS011;2792;52.452;9.752;2022-12-24T13:56:43;5.40;;;1.90;;
5539;SDS011;2792;52.452;9.752;2022-12-24T13:59:16;2.37;;;1.73;;
5539;SDS011;2792;52.452;9.752;2022-12-24T14:01:51;3.00;;;1.33;;
5539;SDS011;2792;52.452;9.752;2022-12-24T14:04:20;2.53;;;1.73;;
5539;SDS011;2792;52.452;9.752;2022-12-24T14:06:50;3.87;;;1.67;;
5539;SDS011;2792;52.452;9.752;2022-12-24T14:09:18;3.20;;;1.70;;
5539;SDS011;2792;52.452;9.752;2022-12-24T14:14:50;1.63;;;1.53;;
5539;SDS011;2792;52.452;9.752;2022-12-24T14:17:20;5.53;;;1.87;;
5539;SDS011;2792;52.452;9.752;2022-12-24T14:19:48;3.73;;;1.63;;
5539;SDS011;2792;52.452;9.752;2022-12-24T14:22:22;1.73;;;1.63;;
5539;SDS011;2792;52.452;9.752;2022-12-24T14:24:54;4.00;;;1.70;;
5539;SDS011;2792;52.452;9.752;2022-12-24T14:27:24;9.03;;;3.00;;
5539;SDS011;2792;52.452;9.752;2022-12-24T14:29:57;4.47;;;2.10;;
5539;SDS011;2792;52.452;9.752;2022-12-24T14:32:32;2.23;;;2.03;;
5539;SDS011;2792;52.452;9.752;2022-12-24T14:35:07;7.80;;;3.27;;
5539;SDS011;2792;52.452;9.752;2022-12-24T14:37:38;5.50;;;2.70;;
5539;SDS011;2792;52.452;9.752;2022-12-24T14:40:05;8.83;;;2.63;;
5539;SDS011;2792;52.452;9.752;2022-12-24T14:42:35;13.63;;;3.13;;
5539;SDS011;2792;52.452;9.752;2022-12-24T14:45:07;8.17;;;3.33;;
5539;SDS011;2792;52.452;9.752;2022-12-24T14:47:39;9.03;;;3.27;;
5539;SDS011;2792;52.452;9.752;2022-12-24T14:53:02;13.63;;;3.77;;
5539;SDS011;2792;52.452;9.752;2022-12-24T14:55:39;14.90;;;4.33;;
5539;SDS011;2792;52.452;9.752;2022-12-24T14:58:17;12.43;;;4.40;;
5539;SDS011;2792;52.452;9.752;2022-12-24T15:00:46;11.53;;;4.13;;
5539;SDS011;2792;52.452;9.752;2022-12-24T15:03:14;15.93;;;4.67;;
5539;SDS011;2792;52.452;9.752;2022-12-24T15:05:41;17.47;;;5.50;;
5539;SDS011;2792;52.452;9.752;2022-12-24T15:08:11;13.80;;;4.80;;
5539;SDS011;2792;52.452;9.752;2022-12-24T15:10:41;16.90;;;5.40;;
5539;SDS011;2792;52.452;9.752;2022-12-24T15:13:12;13.53;;;5.73;;
5539;SDS011;2792;52.452;9.752;2022-12-24T15:15:45;13.43;;;5.73;;
5539;SDS011;2792;52.452;9.752;2022-12-24T15:18:13;12.37;;;4.80;;
5539;SDS011;2792;52.452;9.752;2022-12-24T15:20:41;15.30;;;6.13;;
5539;SDS011;2792;52.452;9.752;2022-12-24T15:23:15;22.07;;;6.53;;
5539;SDS011;2792;52.452;9.752;2022-12-24T15:25:43;12.23;;;6.00;;
5539;SDS011;2792;52.452;9.752;2022-12-24T15:28:14;13.50;;;6.60;;
5539;SDS011;2792;52.452;9.752;2022-12-24T15:30:42;12.87;;;5.60;;
5539;SDS011;2792;52.452;9.752;2022-12-24T15:33:09;14.73;;;7.03;;
5539;SDS011;2792;52.452;9.752;2022-12-24T15:35:43;16.07;;;6.33;;
5539;SDS011;2792;52.452;9.752;2022-12-24T15:38:22;21.20;;;7.23;;
5539;SDS011;2792;52.452;9.752;2022-12-24T15:40:51;17.40;;;7.33;;
5539;SDS011;2792;52.452;9.752;2022-12-24T15:43:18;10.90;;;6.20;;
5539;SDS011;2792;52.452;9.752;2022-12-24T15:45:45;14.07;;;6.67;;
5539;SDS011;2792;52.452;9.752;2022-12-24T15:48:13;17.10;;;7.20;;
5539;SDS011;2792;52.452;9.752;2022-12-24T15:50:45;16.53;;;7.83;;